sensor_id;sensor_type;location;lat;lon;timestamp;pressure;altitude;pressure_sealevel;temperature;humidity
59493;BME280;45497;43.996;22.876;2023-02-21T00:01:57;101420.16;;;11.36;40.65
59493;BME280;45497;43.996;22.876;2023-02-21T00:04:41;101426.66;;;11.41;40.39
59493;BME280;45497;43.996;22.876;2023-02-21T00:07:25;101420.16;;;11.36;40.55
59493;BME280;45497;43.996;22.876;2023-02-21T00:10:14;101418.66;;;11.33;40.62
59493;BME280;45497;43.996;22.876;2023-02-21T00:12:58;101408.66;;;11.27;40.66
59493;BME280;45497;43.996;22.876;2023-02-21T00:15:42;101411.06;;;11.38;40.45
59493;BME280;45497;43.996;22.876;2023-02-21T00:18:26;101404.75;;;11.39;40.44
59493;BME280;45497;43.996;22.876;2023-02-21T00:21:10;101406.53;;;11.31;40.62
59493;BME280;45497;43.996;22.876;2023-02-21T00:23:54;101402.75;;;11.41;40.25
59493;BME280;45497;43.996;22.876;2023-02-21T00:26:38;101389.69;;;11.48;40.18
59493;BME280;45497;43.996;22.876;2023-02-21T00:29:22;101383.28;;;11.59;40.03
59493;BME280;45497;43.996;22.876;2023-02-21T00:32:06;101392.72;;;11.53;40.01
59493;BME280;45497;43.996;22.876;2023-02-21T00:34:50;101384.16;;;11.33;40.08
59493;BME280;45497;43.996;22.876;2023-02-21T00:37:34;101387.19;;;11.38;39.91
59493;BME280;45497;43.996;22.876;2023-02-21T00:40:18;101379.38;;;11.37;40.20
59493;BME280;45497;43.996;22.876;2023-02-21T00:43:02;101375.41;;;11.41;39.86
59493;BME280;45497;43.996;22.876;2023-02-21T00:45:46;101367.75;;;11.38;40.00
59493;BME280;45497;43.996;22.876;2023-02-21T00:48:30;101360.28;;;11.41;39.86
59493;BME280;45497;43.996;22.876;2023-02-21T00:51:15;101353.03;;;11.43;39.87
59493;BME280;45497;43.996;22.876;2023-02-21T00:53:59;101345.22;;;11.50;39.89
59493;BME280;45497;43.996;22.876;2023-02-21T00:56:43;101344.25;;;11.51;39.68
59493;BME280;45497;43.996;22.876;2023-02-21T00:59:27;101344.09;;;11.61;39.70
59493;BME280;45497;43.996;22.876;2023-02-21T01:02:11;101341.13;;;11.64;39.51
59493;BME280;45497;43.996;22.876;2023-02-21T01:04:55;101345.78;;;11.62;39.42
59493;BME280;45497;43.996;22.876;2023-02-21T01:07:39;101338.94;;;11.59;39.53
59493;BME280;45497;43.996;22.876;2023-02-21T01:10:23;101337.81;;;11.62;39.46
59493;BME280;45497;43.996;22.876;2023-02-21T01:13:07;101340.31;;;11.63;39.47
59493;BME280;45497;43.996;22.876;2023-02-21T01:15:51;101327.03;;;11.63;39.46
59493;BME280;45497;43.996;22.876;2023-02-21T01:18:35;101323.53;;;11.63;39.71
59493;BME280;45497;43.996;22.876;2023-02-21T01:21:20;101331.53;;;11.71;39.32
59493;BME280;45497;43.996;22.876;2023-02-21T01:24:05;101329.53;;;11.73;39.26
59493;BME280;45497;43.996;22.876;2023-02-21T01:26:50;101329.56;;;11.81;39.33
59493;BME280;45497;43.996;22.876;2023-02-21T01:29:34;101317.78;;;11.84;39.18
59493;BME280;45497;43.996;22.876;2023-02-21T01:32:18;101315.63;;;11.79;39.06
59493;BME280;45497;43.996;22.876;2023-02-21T01:35:02;101318.59;;;11.84;38.98
59493;BME280;45497;43.996;22.876;2023-02-21T01:37:46;101311.13;;;11.88;38.92
59493;BME280;45497;43.996;22.876;2023-02-21T01:40:29;101316.44;;;11.80;38.78
59493;BME280;45497;43.996;22.876;2023-02-21T01:43:16;101305.31;;;11.76;39.12
59493;BME280;45497;43.996;22.876;2023-02-21T01:46:01;101309.97;;;11.74;38.96
59493;BME280;45497;43.996;22.876;2023-02-21T01:48:46;101292.69;;;11.78;38.97
59493;BME280;45497;43.996;22.876;2023-02-21T01:51:35;101286.88;;;11.75;38.78
59493;BME280;45497;43.996;22.876;2023-02-21T01:54:21;101292.66;;;11.70;38.92
59493;BME280;45497;43.996;22.876;2023-02-21T01:57:07;101284.53;;;11.63;38.92
59493;BME280;45497;43.996;22.876;2023-02-21T01:59:54;101286.31;;;11.46;39.11
59493;BME280;45497;43.996;22.876;2023-02-21T02:02:53;101276.53;;;11.47;39.22
59493;BME280;45497;43.996;22.876;2023-02-21T02:05:41;101281.69;;;11.57;39.12
59493;BME280;45497;43.996;22.876;2023-02-21T02:08:29;101282.72;;;11.64;39.12
59493;BME280;45497;43.996;22.876;2023-02-21T02:25:58;101270.66;;;12.02;38.35
59493;BME280;45497;43.996;22.876;2023-02-21T02:40:27;101262.38;;;12.14;38.04
59493;BME280;45497;43.996;22.876;2023-02-21T02:43:09;101264.34;;;12.20;37.92
59493;BME280;45497;43.996;22.876;2023-02-21T02:46:16;101258.19;;;12.28;37.71
59493;BME280;45497;43.996;22.876;2023-02-21T02:49:03;101253.88;;;12.27;37.73
59493;BME280;45497;43.996;22.876;2023-02-21T02:51:32;101258.53;;;12.33;37.54
59493;BME280;45497;43.996;22.876;2023-02-21T02:53:58;101253.88;;;12.35;37.51
59493;BME280;45497;43.996;22.876;2023-02-21T02:56:23;101245.91;;;12.27;37.69
59493;BME280;45497;43.996;22.876;2023-02-21T03:12:17;101237.25;;;12.41;38.17
59493;BME280;45497;43.996;22.876;2023-02-21T03:15:02;101233.91;;;12.47;38.22
59493;BME280;45497;43.996;22.876;2023-02-21T03:17:31;101231.91;;;12.57;38.58
59493;BME280;45497;43.996;22.876;2023-02-21T03:19:59;101233.38;;;12.60;38.28
59493;BME280;45497;43.996;22.876;2023-02-21T03:22:27;101224.56;;;12.59;38.02
59493;BME280;45497;43.996;22.876;2023-02-21T03:24:57;101222.94;;;12.50;37.89
59493;BME280;45497;43.996;22.876;2023-02-21T03:27:25;101221.91;;;12.51;37.99
59493;BME280;45497;43.996;22.876;2023-02-21T03:29:54;101227.94;;;12.45;38.20
59493;BME280;45497;43.996;22.876;2023-02-21T03:32:27;101230.22;;;12.56;37.88
59493;BME280;45497;43.996;22.876;2023-02-21T03:34:54;101236.03;;;12.60;38.29
59493;BME280;45497;43.996;22.876;2023-02-21T03:37:32;101221.91;;;12.59;38.07
59493;BME280;45497;43.996;22.876;2023-02-21T03:39:59;101223.88;;;12.66;38.18
59493;BME280;45497;43.996;22.876;2023-02-21T03:42:24;101219.38;;;12.74;38.17
59493;BME280;45497;43.996;22.876;2023-02-21T03:44:50;101224.72;;;12.66;37.90
59493;BME280;45497;43.996;22.876;2023-02-21T03:47:16;101222.88;;;12.67;38.16
59493;BME280;45497;43.996;22.876;2023-02-21T03:49:41;101216.22;;;12.71;38.29
59493;BME280;45497;43.996;22.876;2023-02-21T03:52:08;101211.25;;;12.68;38.03
59493;BME280;45497;43.996;22.876;2023-02-21T03:54:37;101218.38;;;12.75;38.10
59493;BME280;45497;43.996;22.876;2023-02-21T03:57:03;101219.03;;;12.77;37.98
59493;BME280;45497;43.996;22.876;2023-02-21T03:59:28;101213.72;;;12.77;37.80
59493;BME280;45497;43.996;22.876;2023-02-21T04:01:55;101212.03;;;12.85;37.34
59493;BME280;45497;43.996;22.876;2023-02-21T04:04:20;101211.88;;;12.78;37.20
59493;BME280;45497;43.996;22.876;2023-02-21T04:06:46;101214.09;;;12.66;37.02
59493;BME280;45497;43.996;22.876;2023-02-21T04:09:11;101210.78;;;12.64;37.15
59493;BME280;45497;43.996;22.876;2023-02-21T04:11:37;101217.25;;;12.61;36.97
59493;BME280;45497;43.996;22.876;2023-02-21T04:14:02;101204.97;;;12.60;36.99
59493;BME280;45497;43.996;22.876;2023-02-21T04:16:29;101199.44;;;12.62;37.31
59493;BME280;45497;43.996;22.876;2023-02-21T04:18:55;101196.59;;;12.72;38.21
59493;BME280;45497;43.996;22.876;2023-02-21T04:21:21;101190.41;;;12.79;37.87
59493;BME280;45497;43.996;22.876;2023-02-21T04:23:46;101183.47;;;12.70;37.41
59493;BME280;45497;43.996;22.876;2023-02-21T04:26:13;101182.91;;;12.83;37.90
59493;BME280;45497;43.996;22.876;2023-02-21T04:28:38;101185.06;;;12.88;37.49
59493;BME280;45497;43.996;22.876;2023-02-21T04:31:04;101169.09;;;12.88;37.65
59493;BME280;45497;43.996;22.876;2023-02-21T04:33:29;101173.78;;;12.86;37.43
59493;BME280;45497;43.996;22.876;2023-02-21T04:35:55;101170.63;;;12.82;37.39
59493;BME280;45497;43.996;22.876;2023-02-21T04:38:20;101165.13;;;12.84;37.28
59493;BME280;45497;43.996;22.876;2023-02-21T04:40:45;101164.84;;;12.78;37.10
59493;BME280;45497;43.996;22.876;2023-02-21T04:43:11;101172.63;;;12.80;36.86
59493;BME280;45497;43.996;22.876;2023-02-21T04:45:36;101157.69;;;12.71;36.86
59493;BME280;45497;43.996;22.876;2023-02-21T04:48:02;101147.72;;;12.73;36.83
59493;BME280;45497;43.996;22.876;2023-02-21T04:50:27;101145.72;;;12.75;36.90
59493;BME280;45497;43.996;22.876;2023-02-21T04:52:53;101146.56;;;12.75;36.83
59493;BME280;45497;43.996;22.876;2023-02-21T04:55:18;101159.88;;;12.67;36.61
59493;BME280;45497;43.996;22.876;2023-02-21T04:57:44;101151.09;;;12.58;36.60
59493;BME280;45497;43.996;22.876;2023-02-21T05:00:10;101153.59;;;12.60;36.90
59493;BME280;45497;43.996;22.876;2023-02-21T05:02:36;101146.47;;;12.52;36.52
59493;BME280;45497;43.996;22.876;2023-02-21T05:05:01;101145.09;;;12.65;36.36
59493;BME280;45497;43.996;22.876;2023-02-21T05:07:27;101144.09;;;12.66;36.26
59493;BME280;45497;43.996;22.876;2023-02-21T05:09:52;101146.25;;;12.62;36.49
59493;BME280;45497;43.996;22.876;2023-02-21T05:12:18;101143.09;;;12.67;36.22
59493;BME280;45497;43.996;22.876;2023-02-21T05:14:43;101150.41;;;12.65;36.42
59493;BME280;45497;43.996;22.876;2023-02-21T05:17:09;101140.59;;;12.65;36.29
59493;BME280;45497;43.996;22.876;2023-02-21T05:19:34;101145.03;;;12.81;36.14
59493;BME280;45497;43.996;22.876;2023-02-21T05:22:01;101136.56;;;12.77;36.46
59493;BME280;45497;43.996;22.876;2023-02-21T05:24:29;101136.25;;;12.72;36.07
59493;BME280;45497;43.996;22.876;2023-02-21T05:26:55;101134.13;;;12.68;36.02
59493;BME280;45497;43.996;22.876;2023-02-21T05:29:22;101135.38;;;12.80;36.01
59493;BME280;45497;43.996;22.876;2023-02-21T05:31:47;101136.69;;;12.84;35.71
59493;BME280;45497;43.996;22.876;2023-02-21T05:34:14;101136.81;;;12.91;35.98
59493;BME280;45497;43.996;22.876;2023-02-21T05:36:40;101126.38;;;12.89;35.50
59493;BME280;45497;43.996;22.876;2023-02-21T05:39:06;101147.75;;;12.96;35.43
59493;BME280;45497;43.996;22.876;2023-02-21T05:41:32;101148.25;;;12.99;35.60
59493;BME280;45497;43.996;22.876;2023-02-21T05:44:00;101151.81;;;13.15;35.17
59493;BME280;45497;43.996;22.876;2023-02-21T05:46:29;101142.63;;;13.17;35.37
59493;BME280;45497;43.996;22.876;2023-02-21T05:48:57;101158.50;;;13.11;35.51
59493;BME280;45497;43.996;22.876;2023-02-21T05:51:23;101152.78;;;13.22;35.11
59493;BME280;45497;43.996;22.876;2023-02-21T05:53:49;101157.22;;;13.30;34.97
59493;BME280;45497;43.996;22.876;2023-02-21T05:56:16;101150.91;;;13.31;35.13
59493;BME280;45497;43.996;22.876;2023-02-21T05:58:42;101155.06;;;13.33;35.20
59493;BME280;45497;43.996;22.876;2023-02-21T06:01:07;101176.59;;;13.47;34.90
59493;BME280;45497;43.996;22.876;2023-02-21T06:03:33;101174.59;;;13.49;34.83
59493;BME280;45497;43.996;22.876;2023-02-21T06:05:58;101175.13;;;13.44;34.69
59493;BME280;45497;43.996;22.876;2023-02-21T06:08:24;101173.81;;;13.40;34.73
59493;BME280;45497;43.996;22.876;2023-02-21T06:10:50;101177.78;;;13.44;34.57
59493;BME280;45497;43.996;22.876;2023-02-21T06:13:15;101183.56;;;13.48;34.52
59493;BME280;45497;43.996;22.876;2023-02-21T06:15:41;101190.03;;;13.53;34.85
59493;BME280;45497;43.996;22.876;2023-02-21T06:18:07;101197.53;;;13.50;34.54
59493;BME280;45497;43.996;22.876;2023-02-21T06:20:33;101204.53;;;13.51;34.47
59493;BME280;45497;43.996;22.876;2023-02-21T06:22:58;101207.78;;;13.61;34.70
59493;BME280;45497;43.996;22.876;2023-02-21T06:25:23;101213.94;;;13.62;34.35
59493;BME280;45497;43.996;22.876;2023-02-21T06:27:49;101216.50;;;13.78;34.30
59493;BME280;45497;43.996;22.876;2023-02-21T06:30:14;101228.38;;;13.90;34.37
59493;BME280;45497;43.996;22.876;2023-02-21T06:32:41;101219.75;;;13.88;34.40
59493;BME280;45497;43.996;22.876;2023-02-21T06:35:07;101212.47;;;13.97;34.22
59493;BME280;45497;43.996;22.876;2023-02-21T06:37:33;101215.81;;;13.99;33.91
59493;BME280;45497;43.996;22.876;2023-02-21T06:39:59;101219.50;;;14.13;34.15
59493;BME280;45497;43.996;22.876;2023-02-21T06:42:24;101224.31;;;14.18;33.82
59493;BME280;45497;43.996;22.876;2023-02-21T06:44:50;101202.97;;;14.18;33.86
59493;BME280;45497;43.996;22.876;2023-02-21T06:47:15;101222.13;;;14.21;33.62
59493;BME280;45497;43.996;22.876;2023-02-21T06:49:41;101216.91;;;14.28;34.06
59493;BME280;45497;43.996;22.876;2023-02-21T06:52:08;101205.47;;;14.34;34.17
59493;BME280;45497;43.996;22.876;2023-02-21T06:54:33;101214.41;;;14.41;33.98
59493;BME280;45497;43.996;22.876;2023-02-21T06:56:59;101212.56;;;14.42;33.85
59493;BME280;45497;43.996;22.876;2023-02-21T06:59:29;101221.31;;;14.50;33.35
59493;BME280;45497;43.996;22.876;2023-02-21T07:01:55;101206.06;;;14.59;33.72
59493;BME280;45497;43.996;22.876;2023-02-21T07:04:21;101205.50;;;14.64;33.81
59493;BME280;45497;43.996;22.876;2023-02-21T07:06:47;101207.63;;;14.68;33.53
59493;BME280;45497;43.996;22.876;2023-02-21T07:09:12;101210.47;;;14.82;33.34
59493;BME280;45497;43.996;22.876;2023-02-21T07:11:39;101204.59;;;14.86;33.17
59493;BME280;45497;43.996;22.876;2023-02-21T07:14:04;101206.03;;;14.89;33.18
59493;BME280;45497;43.996;22.876;2023-02-21T07:16:30;101202.72;;;15.02;32.67
59493;BME280;45497;43.996;22.876;2023-02-21T07:18:55;101201.16;;;15.07;33.12
59493;BME280;45497;43.996;22.876;2023-02-21T07:21:22;101213.91;;;15.12;32.93
59493;BME280;45497;43.996;22.876;2023-02-21T07:23:48;101196.31;;;15.18;32.42
59493;BME280;45497;43.996;22.876;2023-02-21T07:26:13;101201.38;;;15.27;32.38
59493;BME280;45497;43.996;22.876;2023-02-21T07:28:39;101196.28;;;15.33;32.18
59493;BME280;45497;43.996;22.876;2023-02-21T07:31:05;101186.88;;;15.37;32.04
59493;BME280;45497;43.996;22.876;2023-02-21T07:33:30;101205.56;;;15.37;32.19
59493;BME280;45497;43.996;22.876;2023-02-21T07:35:56;101201.03;;;15.37;31.80
59493;BME280;45497;43.996;22.876;2023-02-21T07:38:26;101198.44;;;15.44;31.59
59493;BME280;45497;43.996;22.876;2023-02-21T07:41:00;101196.31;;;15.54;31.58
59493;BME280;45497;43.996;22.876;2023-02-21T07:43:27;101194.56;;;15.68;31.33
59493;BME280;45497;43.996;22.876;2023-02-21T07:45:53;101191.16;;;15.74;31.61
59493;BME280;45497;43.996;22.876;2023-02-21T07:48:18;101195.00;;;15.93;31.36
59493;BME280;45497;43.996;22.876;2023-02-21T07:50:45;101175.03;;;15.89;31.01
59493;BME280;45497;43.996;22.876;2023-02-21T07:53:11;101183.16;;;16.02;30.94
59493;BME280;45497;43.996;22.876;2023-02-21T07:55:36;101187.97;;;16.14;31.47
59493;BME280;45497;43.996;22.876;2023-02-21T07:58:02;101185.56;;;16.19;31.09
59493;BME280;45497;43.996;22.876;2023-02-21T08:00:28;101193.66;;;16.32;31.14
59493;BME280;45497;43.996;22.876;2023-02-21T08:02:54;101179.97;;;16.20;30.54
59493;BME280;45497;43.996;22.876;2023-02-21T08:05:20;101179.66;;;16.30;30.44
59493;BME280;45497;43.996;22.876;2023-02-21T08:07:46;101183.44;;;16.42;30.76
59493;BME280;45497;43.996;22.876;2023-02-21T08:10:17;101173.34;;;16.44;30.18
59493;BME280;45497;43.996;22.876;2023-02-21T08:12:43;101181.44;;;16.51;30.30
59493;BME280;45497;43.996;22.876;2023-02-21T08:15:09;101172.34;;;16.52;29.83
59493;BME280;45497;43.996;22.876;2023-02-21T08:17:34;101156.16;;;16.67;29.82
59493;BME280;45497;43.996;22.876;2023-02-21T08:19:59;101159.69;;;16.74;30.41
59493;BME280;45497;43.996;22.876;2023-02-21T08:22:25;101159.78;;;16.88;30.36
59493;BME280;45497;43.996;22.876;2023-02-21T08:24:51;101153.38;;;16.89;30.08
59493;BME280;45497;43.996;22.876;2023-02-21T08:27:17;101158.56;;;16.97;30.28
59493;BME280;45497;43.996;22.876;2023-02-21T08:29:43;101160.25;;;16.98;30.57
59493;BME280;45497;43.996;22.876;2023-02-21T08:32:08;101164.53;;;16.99;30.31
59493;BME280;45497;43.996;22.876;2023-02-21T08:34:34;101168.28;;;17.11;29.89
59493;BME280;45497;43.996;22.876;2023-02-21T08:37:00;101173.81;;;17.03;30.03
59493;BME280;45497;43.996;22.876;2023-02-21T08:39:25;101176.31;;;17.05;30.02
59493;BME280;45497;43.996;22.876;2023-02-21T08:41:54;101175.31;;;17.19;30.40
59493;BME280;45497;43.996;22.876;2023-02-21T08:44:20;101171.84;;;17.25;29.63
59493;BME280;45497;43.996;22.876;2023-02-21T08:46:48;101179.03;;;17.25;29.87
59493;BME280;45497;43.996;22.876;2023-02-21T08:49:14;101182.34;;;17.20;29.98
59493;BME280;45497;43.996;22.876;2023-02-21T08:51:39;101181.31;;;17.28;29.61
59493;BME280;45497;43.996;22.876;2023-02-21T08:54:06;101186.09;;;17.32;29.22
59493;BME280;45497;43.996;22.876;2023-02-21T08:56:32;101184.00;;;17.41;29.77
59493;BME280;45497;43.996;22.876;2023-02-21T08:58:58;101190.63;;;17.38;30.24
59493;BME280;45497;43.996;22.876;2023-02-21T09:01:30;101186.69;;;17.41;29.61
59493;BME280;45497;43.996;22.876;2023-02-21T09:03:56;101199.50;;;17.52;29.52
59493;BME280;45497;43.996;22.876;2023-02-21T09:06:22;101196.63;;;17.47;29.56
59493;BME280;45497;43.996;22.876;2023-02-21T09:08:47;101188.13;;;17.37;28.87
59493;BME280;45497;43.996;22.876;2023-02-21T09:11:13;101194.97;;;17.60;28.89
59493;BME280;45497;43.996;22.876;2023-02-21T09:13:38;101190.84;;;17.57;28.65
59493;BME280;45497;43.996;22.876;2023-02-21T09:16:04;101198.69;;;17.45;28.07
59493;BME280;45497;43.996;22.876;2023-02-21T09:18:30;101202.19;;;17.59;28.34
59493;BME280;45497;43.996;22.876;2023-02-21T09:20:56;101199.09;;;17.82;28.25
59493;BME280;45497;43.996;22.876;2023-02-21T09:23:24;101181.19;;;17.76;27.81
59493;BME280;45497;43.996;22.876;2023-02-21T09:25:50;101196.44;;;17.69;27.53
59493;BME280;45497;43.996;22.876;2023-02-21T09:28:16;101184.25;;;17.66;27.65
59493;BME280;45497;43.996;22.876;2023-02-21T09:30:42;101185.50;;;17.77;27.36
59493;BME280;45497;43.996;22.876;2023-02-21T09:33:08;101183.47;;;17.86;27.53
59493;BME280;45497;43.996;22.876;2023-02-21T09:35:34;101164.00;;;18.24;27.48
59493;BME280;45497;43.996;22.876;2023-02-21T09:38:00;101175.00;;;18.09;27.22
59493;BME280;45497;43.996;22.876;2023-02-21T09:43:05;101172.06;;;18.24;26.99
59493;BME280;45497;43.996;22.876;2023-02-21T09:45:35;101172.66;;;18.32;26.69
59493;BME280;45497;43.996;22.876;2023-02-21T09:48:12;101174.34;;;18.27;26.91
59493;BME280;45497;43.996;22.876;2023-02-21T09:50:47;101173.13;;;18.16;26.55
59493;BME280;45497;43.996;22.876;2023-02-21T09:53:18;101166.28;;;18.20;26.58
59493;BME280;45497;43.996;22.876;2023-02-21T09:55:44;101158.63;;;18.30;26.56
59493;BME280;45497;43.996;22.876;2023-02-21T09:58:12;101160.84;;;18.60;26.61
59493;BME280;45497;43.996;22.876;2023-02-21T10:00:39;101158.75;;;18.62;26.42
59493;BME280;45497;43.996;22.876;2023-02-21T10:06:30;101129.16;;;18.82;26.82
59493;BME280;45497;43.996;22.876;2023-02-21T10:09:17;101131.94;;;19.01;26.20
59493;BME280;45497;43.996;22.876;2023-02-21T10:12:07;101127.63;;;19.00;26.32
59493;BME280;45497;43.996;22.876;2023-02-21T10:17:35;101119.19;;;18.96;25.94
59493;BME280;45497;43.996;22.876;2023-02-21T10:20:15;101105.47;;;19.04;25.64
59493;BME280;45497;43.996;22.876;2023-02-21T10:22:45;101111.06;;;19.03;25.65
59493;BME280;45497;43.996;22.876;2023-02-21T10:25:30;101096.97;;;19.07;25.55
59493;BME280;45497;43.996;22.876;2023-02-21T10:27:57;101103.78;;;19.10;25.07
59493;BME280;45497;43.996;22.876;2023-02-21T10:30:36;101093.53;;;18.94;25.42
59493;BME280;45497;43.996;22.876;2023-02-21T10:33:05;101099.91;;;18.99;25.26
59493;BME280;45497;43.996;22.876;2023-02-21T10:35:36;101110.13;;;19.16;25.18
59493;BME280;45497;43.996;22.876;2023-02-21T10:38:05;101094.25;;;19.14;25.15
59493;BME280;45497;43.996;22.876;2023-02-21T10:40:35;101099.13;;;19.24;25.09
59493;BME280;45497;43.996;22.876;2023-02-21T10:43:04;101095.34;;;19.57;24.81
59493;BME280;45497;43.996;22.876;2023-02-21T10:45:39;101096.44;;;18.92;24.98
59493;BME280;45497;43.996;22.876;2023-02-21T10:48:08;101092.84;;;19.05;25.05
59493;BME280;45497;43.996;22.876;2023-02-21T10:50:37;101083.78;;;18.99;24.79
59493;BME280;45497;43.996;22.876;2023-02-21T10:53:02;101077.97;;;19.34;24.88
59493;BME280;45497;43.996;22.876;2023-02-21T10:58:30;101079.91;;;19.27;24.92
59493;BME280;45497;43.996;22.876;2023-02-21T11:01:51;101079.34;;;19.18;24.82
59493;BME280;45497;43.996;22.876;2023-02-21T11:04:04;101062.00;;;19.14;24.67
59493;BME280;45497;43.996;22.876;2023-02-21T11:06:38;101086.03;;;19.34;24.67
59493;BME280;45497;43.996;22.876;2023-02-21T11:12:21;101053.06;;;19.45;24.82
59493;BME280;45497;43.996;22.876;2023-02-21T11:17:17;101056.63;;;19.39;24.45
59493;BME280;45497;43.996;22.876;2023-02-21T11:19:47;101042.47;;;19.51;24.50
59493;BME280;45497;43.996;22.876;2023-02-21T11:22:14;101039.44;;;19.40;24.82
59493;BME280;45497;43.996;22.876;2023-02-21T11:24:57;101049.41;;;19.58;24.46
59493;BME280;45497;43.996;22.876;2023-02-21T11:27:24;101037.84;;;19.83;24.33
59493;BME280;45497;43.996;22.876;2023-02-21T11:29:50;101035.94;;;20.02;24.31
59493;BME280;45497;43.996;22.876;2023-02-21T11:32:30;101029.09;;;20.06;24.15
59493;BME280;45497;43.996;22.876;2023-02-21T11:35:07;101021.19;;;19.67;24.33
59493;BME280;45497;43.996;22.876;2023-02-21T11:37:34;101023.44;;;19.71;24.32
59493;BME280;45497;43.996;22.876;2023-02-21T11:45:37;101013.28;;;19.73;24.50
59493;BME280;45497;43.996;22.876;2023-02-21T11:48:12;101009.47;;;19.62;24.86
59493;BME280;45497;43.996;22.876;2023-02-21T11:50:42;100998.81;;;19.74;24.79
59493;BME280;45497;43.996;22.876;2023-02-21T11:53:29;100997.31;;;19.96;24.39
59493;BME280;45497;43.996;22.876;2023-02-21T11:56:20;100994.00;;;20.13;24.31
59493;BME280;45497;43.996;22.876;2023-02-21T12:02:14;100981.16;;;19.96;23.81
59493;BME280;45497;43.996;22.876;2023-02-21T12:07:34;100974.63;;;20.22;23.92
59493;BME280;45497;43.996;22.876;2023-02-21T12:17:49;100960.31;;;20.40;23.13
59493;BME280;45497;43.996;22.876;2023-02-21T12:21:07;100953.53;;;20.50;23.05
59493;BME280;45497;43.996;22.876;2023-02-21T12:23:34;100949.50;;;20.29;23.41
59493;BME280;45497;43.996;22.876;2023-02-21T12:27:04;100953.31;;;20.51;23.00
59493;BME280;45497;43.996;22.876;2023-02-21T12:34:41;100936.56;;;20.49;22.74
59493;BME280;45497;43.996;22.876;2023-02-21T12:40:16;100929.84;;;20.70;22.62
59493;BME280;45497;43.996;22.876;2023-02-21T12:50:39;100915.22;;;20.78;22.48
59493;BME280;45497;43.996;22.876;2023-02-21T12:53:44;100919.06;;;20.94;22.81
59493;BME280;45497;43.996;22.876;2023-02-21T12:56:25;100921.06;;;21.10;22.69
59493;BME280;45497;43.996;22.876;2023-02-21T13:01:37;100914.38;;;20.77;22.89
59493;BME280;45497;43.996;22.876;2023-02-21T13:04:17;100923.53;;;20.88;22.95
59493;BME280;45497;43.996;22.876;2023-02-21T13:07:08;100911.47;;;21.03;23.02
59493;BME280;45497;43.996;22.876;2023-02-21T13:09:44;100922.03;;;21.16;22.77
59493;BME280;45497;43.996;22.876;2023-02-21T13:12:16;100902.56;;;21.02;22.97
59493;BME280;45497;43.996;22.876;2023-02-21T13:14:50;100900.56;;;20.97;23.11
59493;BME280;45497;43.996;22.876;2023-02-21T13:17:18;100895.53;;;20.89;23.11
59493;BME280;45497;43.996;22.876;2023-02-21T13:20:05;100903.16;;;20.92;23.44
59493;BME280;45497;43.996;22.876;2023-02-21T13:26:22;100887.09;;;20.97;23.34
59493;BME280;45497;43.996;22.876;2023-02-21T13:28:52;100892.38;;;20.92;23.58
59493;BME280;45497;43.996;22.876;2023-02-21T13:31:22;100903.16;;;20.92;23.44
59493;BME280;45497;43.996;22.876;2023-02-21T13:33:54;100907.19;;;20.59;23.20
59493;BME280;45497;43.996;22.876;2023-02-21T13:36:42;100883.63;;;20.43;23.44
59493;BME280;45497;43.996;22.876;2023-02-21T13:41:40;100901.03;;;20.71;23.30
59493;BME280;45497;43.996;22.876;2023-02-21T13:44:12;100888.72;;;20.63;23.11
59493;BME280;45497;43.996;22.876;2023-02-21T13:49:58;100899.06;;;20.78;23.08
59493;BME280;45497;43.996;22.876;2023-02-21T13:57:39;100885.09;;;20.69;23.06
59493;BME280;45497;43.996;22.876;2023-02-21T14:08:37;100883.47;;;20.80;23.42
59493;BME280;45497;43.996;22.876;2023-02-21T14:13:52;100878.88;;;20.69;23.35
59493;BME280;45497;43.996;22.876;2023-02-21T14:22:15;100883.88;;;20.53;23.32
59493;BME280;45497;43.996;22.876;2023-02-21T14:24:47;100902.78;;;20.77;23.55
59493;BME280;45497;43.996;22.876;2023-02-21T14:32:41;100884.16;;;20.75;23.41
59493;BME280;45497;43.996;22.876;2023-02-21T14:37:50;100894.06;;;20.51;23.29
59493;BME280;45497;43.996;22.876;2023-02-21T14:56:02;100879.72;;;20.27;23.16
59493;BME280;45497;43.996;22.876;2023-02-21T15:09:35;100871.09;;;20.37;22.78
59493;BME280;45497;43.996;22.876;2023-02-21T15:12:06;100883.47;;;20.26;22.82
59493;BME280;45497;43.996;22.876;2023-02-21T15:14:38;100880.31;;;20.29;22.90
59493;BME280;45497;43.996;22.876;2023-02-21T15:17:13;100881.81;;;20.13;23.00
59493;BME280;45497;43.996;22.876;2023-02-21T15:19:41;100889.53;;;20.21;23.13
59493;BME280;45497;43.996;22.876;2023-02-21T15:22:22;100894.84;;;20.28;23.02
59493;BME280;45497;43.996;22.876;2023-02-21T15:25:11;100882.41;;;20.15;23.12
59493;BME280;45497;43.996;22.876;2023-02-21T15:30:16;100891.22;;;20.04;23.18
59493;BME280;45497;43.996;22.876;2023-02-21T15:32:55;100889.81;;;20.01;23.23
59493;BME280;45497;43.996;22.876;2023-02-21T15:35:25;100894.88;;;19.79;23.13
59493;BME280;45497;43.996;22.876;2023-02-21T15:37:52;100907.56;;;19.72;23.33
59493;BME280;45497;43.996;22.876;2023-02-21T15:40:23;100903.22;;;19.71;23.64
59493;BME280;45497;43.996;22.876;2023-02-21T15:42:50;100900.50;;;19.78;23.55
59493;BME280;45497;43.996;22.876;2023-02-21T15:45:25;100903.41;;;19.76;23.68
59493;BME280;45497;43.996;22.876;2023-02-21T15:47:53;100914.09;;;19.64;23.86
59493;BME280;45497;43.996;22.876;2023-02-21T15:50:30;100922.28;;;19.70;23.93